sensor_id;sensor_type;location;lat;lon;timestamp;temperature;humidity
20610;DHT22;10463;52.378;9.688;2022-10-30T00:00:40;30.00;31.20
20610;DHT22;10463;52.378;9.688;2022-10-30T00:03:26;30.00;30.50
20610;DHT22;10463;52.378;9.688;2022-10-30T00:06:11;30.00;30.50
20610;DHT22;10463;52.378;9.688;2022-10-30T00:08:55;30.00;30.50
20610;DHT22;10463;52.378;9.688;2022-10-30T00:11:40;30.00;30.50
20610;DHT22;10463;52.378;9.688;2022-10-30T00:14:25;30.10;30.60
20610;DHT22;10463;52.378;9.688;2022-10-30T00:17:10;30.00;30.50
20610;DHT22;10463;52.378;9.688;2022-10-30T00:19:56;30.00;30.50
20610;DHT22;10463;52.378;9.688;2022-10-30T00:22:40;30.00;30.50
20610;DHT22;10463;52.378;9.688;2022-10-30T00:25:25;30.00;30.40
20610;DHT22;10463;52.378;9.688;2022-10-30T00:28:10;30.00;30.40
20610;DHT22;10463;52.378;9.688;2022-10-30T00:30:58;30.00;30.40
20610;DHT22;10463;52.378;9.688;2022-10-30T00:33:42;30.00;30.40
20610;DHT22;10463;52.378;9.688;2022-10-30T00:36:28;30.00;30.40
20610;DHT22;10463;52.378;9.688;2022-10-30T00:39:13;30.00;31.10
20610;DHT22;10463;52.378;9.688;2022-10-30T00:41:58;30.00;30.40
20610;DHT22;10463;52.378;9.688;2022-10-30T00:44:47;30.00;30.40
20610;DHT22;10463;52.378;9.688;2022-10-30T00:47:36;30.00;30.40
20610;DHT22;10463;52.378;9.688;2022-10-30T00:50:25;30.00;30.40
20610;DHT22;10463;52.378;9.688;2022-10-30T00:53:15;30.00;30.50
20610;DHT22;10463;52.378;9.688;2022-10-30T00:56:05;30.00;30.50
20610;DHT22;10463;52.378;9.688;2022-10-30T00:58:57;29.90;31.10
20610;DHT22;10463;52.378;9.688;2022-10-30T01:01:45;29.90;31.10
20610;DHT22;10463;52.378;9.688;2022-10-30T01:04:32;29.90;30.50
20610;DHT22;10463;52.378;9.688;2022-10-30T01:07:19;29.90;30.40
20610;DHT22;10463;52.378;9.688;2022-10-30T01:10:06;29.90;30.30
20610;DHT22;10463;52.378;9.688;2022-10-30T01:12:53;29.90;30.20
20610;DHT22;10463;52.378;9.688;2022-10-30T01:15:44;29.90;30.20
20610;DHT22;10463;52.378;9.688;2022-10-30T01:18:43;29.90;30.20
20610;DHT22;10463;52.378;9.688;2022-10-30T01:21:43;29.90;30.70
20610;DHT22;10463;52.378;9.688;2022-10-30T01:24:43;29.90;30.00
20610;DHT22;10463;52.378;9.688;2022-10-30T01:27:38;29.80;30.00
20610;DHT22;10463;52.378;9.688;2022-10-30T01:30:40;29.80;30.00
20610;DHT22;10463;52.378;9.688;2022-10-30T01:33:39;29.80;30.00
20610;DHT22;10463;52.378;9.688;2022-10-30T01:36:34;29.80;30.00
20610;DHT22;10463;52.378;9.688;2022-10-30T01:39:23;29.80;29.90
20610;DHT22;10463;52.378;9.688;2022-10-30T01:42:10;29.80;29.90
20610;DHT22;10463;52.378;9.688;2022-10-30T01:44:56;29.80;29.90
20610;DHT22;10463;52.378;9.688;2022-10-30T01:50:59;29.70;30.10
20610;DHT22;10463;52.378;9.688;2022-10-30T01:53:56;29.70;29.80
20610;DHT22;10463;52.378;9.688;2022-10-30T01:56:53;29.70;29.80
20610;DHT22;10463;52.378;9.688;2022-10-30T01:59:43;29.70;29.80
20610;DHT22;10463;52.378;9.688;2022-10-30T02:02:32;29.70;29.80
20610;DHT22;10463;52.378;9.688;2022-10-30T02:05:26;29.70;29.80
20610;DHT22;10463;52.378;9.688;2022-10-30T02:08:13;29.70;29.70
20610;DHT22;10463;52.378;9.688;2022-10-30T02:10:58;29.60;29.60
20610;DHT22;10463;52.378;9.688;2022-10-30T02:13:55;29.60;29.60
20610;DHT22;10463;52.378;9.688;2022-10-30T02:16:46;29.60;29.60
20610;DHT22;10463;52.378;9.688;2022-10-30T02:19:33;29.60;29.60
20610;DHT22;10463;52.378;9.688;2022-10-30T02:22:21;29.60;30.10
20610;DHT22;10463;52.378;9.688;2022-10-30T02:25:07;29.60;29.60
20610;DHT22;10463;52.378;9.688;2022-10-30T02:27:52;29.60;29.70
20610;DHT22;10463;52.378;9.688;2022-10-30T02:30:37;29.60;29.60
20610;DHT22;10463;52.378;9.688;2022-10-30T02:33:23;29.50;29.50
20610;DHT22;10463;52.378;9.688;2022-10-30T02:36:08;29.50;29.60
20610;DHT22;10463;52.378;9.688;2022-10-30T02:38:54;29.60;29.60
20610;DHT22;10463;52.378;9.688;2022-10-30T02:41:39;29.50;29.60
20610;DHT22;10463;52.378;9.688;2022-10-30T02:44:24;29.50;29.60
20610;DHT22;10463;52.378;9.688;2022-10-30T02:47:09;29.50;29.60
20610;DHT22;10463;52.378;9.688;2022-10-30T02:49:53;29.50;29.50
20610;DHT22;10463;52.378;9.688;2022-10-30T02:52:38;29.50;29.50
20610;DHT22;10463;52.378;9.688;2022-10-30T02:55:24;29.50;29.50
20610;DHT22;10463;52.378;9.688;2022-10-30T02:58:11;29.50;29.50
20610;DHT22;10463;52.378;9.688;2022-10-30T03:01:03;29.40;29.50
20610;DHT22;10463;52.378;9.688;2022-10-30T03:03:49;29.40;29.50
20610;DHT22;10463;52.378;9.688;2022-10-30T03:06:34;29.40;29.50
20610;DHT22;10463;52.378;9.688;2022-10-30T03:09:19;29.40;30.00
20610;DHT22;10463;52.378;9.688;2022-10-30T03:12:06;29.40;29.50
20610;DHT22;10463;52.378;9.688;2022-10-30T03:14:51;29.40;29.50
20610;DHT22;10463;52.378;9.688;2022-10-30T03:17:35;29.40;29.50
20610;DHT22;10463;52.378;9.688;2022-10-30T03:20:20;29.40;29.40
20610;DHT22;10463;52.378;9.688;2022-10-30T03:23:04;29.40;29.40
20610;DHT22;10463;52.378;9.688;2022-10-30T03:25:52;29.40;29.30
20610;DHT22;10463;52.378;9.688;2022-10-30T03:28:39;29.40;29.30
20610;DHT22;10463;52.378;9.688;2022-10-30T03:31:23;29.30;29.20
20610;DHT22;10463;52.378;9.688;2022-10-30T03:34:26;29.30;29.20
20610;DHT22;10463;52.378;9.688;2022-10-30T03:37:11;29.30;29.20
20610;DHT22;10463;52.378;9.688;2022-10-30T03:39:57;29.20;29.20
20610;DHT22;10463;52.378;9.688;2022-10-30T03:42:41;29.20;29.20
20610;DHT22;10463;52.378;9.688;2022-10-30T03:45:28;29.20;29.20
20610;DHT22;10463;52.378;9.688;2022-10-30T03:48:13;29.20;29.30
20610;DHT22;10463;52.378;9.688;2022-10-30T03:50:58;29.20;29.30
20610;DHT22;10463;52.378;9.688;2022-10-30T03:53:44;29.20;29.80
20610;DHT22;10463;52.378;9.688;2022-10-30T03:56:29;29.10;29.30
20610;DHT22;10463;52.378;9.688;2022-10-30T03:59:16;29.10;29.30
20610;DHT22;10463;52.378;9.688;2022-10-30T04:02:11;29.10;29.30
20610;DHT22;10463;52.378;9.688;2022-10-30T04:04:56;29.10;29.30
20610;DHT22;10463;52.378;9.688;2022-10-30T04:07:41;29.10;29.30
20610;DHT22;10463;52.378;9.688;2022-10-30T04:10:27;29.10;29.30
20610;DHT22;10463;52.378;9.688;2022-10-30T04:13:16;29.10;29.20
20610;DHT22;10463;52.378;9.688;2022-10-30T04:16:07;29.10;29.30
20610;DHT22;10463;52.378;9.688;2022-10-30T04:18:53;29.10;29.30
20610;DHT22;10463;52.378;9.688;2022-10-30T04:21:38;29.00;29.20
20610;DHT22;10463;52.378;9.688;2022-10-30T04:24:22;29.00;29.20
20610;DHT22;10463;52.378;9.688;2022-10-30T04:27:11;29.00;29.20
20610;DHT22;10463;52.378;9.688;2022-10-30T04:29:57;29.10;29.30
20610;DHT22;10463;52.378;9.688;2022-10-30T04:32:45;29.00;29.20
20610;DHT22;10463;52.378;9.688;2022-10-30T04:35:34;29.00;29.20
20610;DHT22;10463;52.378;9.688;2022-10-30T04:38:26;29.00;29.20
20610;DHT22;10463;52.378;9.688;2022-10-30T04:41:11;29.00;29.20
20610;DHT22;10463;52.378;9.688;2022-10-30T04:44:10;28.90;29.20
20610;DHT22;10463;52.378;9.688;2022-10-30T04:46:55;28.90;29.20
20610;DHT22;10463;52.378;9.688;2022-10-30T04:49:41;28.90;29.20
20610;DHT22;10463;52.378;9.688;2022-10-30T04:52:27;28.90;29.20
20610;DHT22;10463;52.378;9.688;2022-10-30T04:55:12;28.90;29.20
20610;DHT22;10463;52.378;9.688;2022-10-30T04:58:00;28.90;29.20
20610;DHT22;10463;52.378;9.688;2022-10-30T05:00:52;28.90;29.20
20610;DHT22;10463;52.378;9.688;2022-10-30T05:03:37;28.80;29.10
20610;DHT22;10463;52.378;9.688;2022-10-30T05:06:28;28.80;29.10
20610;DHT22;10463;52.378;9.688;2022-10-30T05:09:15;28.80;29.20
20610;DHT22;10463;52.378;9.688;2022-10-30T05:12:00;28.70;29.10
20610;DHT22;10463;52.378;9.688;2022-10-30T05:14:50;28.70;29.20
20610;DHT22;10463;52.378;9.688;2022-10-30T05:17:36;28.70;29.20
20610;DHT22;10463;52.378;9.688;2022-10-30T05:20:21;28.70;29.20
20610;DHT22;10463;52.378;9.688;2022-10-30T05:23:05;28.70;29.20
20610;DHT22;10463;52.378;9.688;2022-10-30T05:25:52;28.70;29.20
20610;DHT22;10463;52.378;9.688;2022-10-30T05:28:37;28.60;29.20
20610;DHT22;10463;52.378;9.688;2022-10-30T05:31:23;28.60;29.20
20610;DHT22;10463;52.378;9.688;2022-10-30T05:34:23;28.60;29.20
20610;DHT22;10463;52.378;9.688;2022-10-30T05:37:10;28.60;29.20
20610;DHT22;10463;52.378;9.688;2022-10-30T05:39:55;28.60;29.80
20610;DHT22;10463;52.378;9.688;2022-10-30T05:42:46;28.60;29.20
20610;DHT22;10463;52.378;9.688;2022-10-30T05:45:31;28.50;29.10
20610;DHT22;10463;52.378;9.688;2022-10-30T05:48:18;28.50;29.20
20610;DHT22;10463;52.378;9.688;2022-10-30T05:51:04;28.50;29.20
20610;DHT22;10463;52.378;9.688;2022-10-30T05:53:50;28.50;29.20
20610;DHT22;10463;52.378;9.688;2022-10-30T05:56:38;28.40;29.10
20610;DHT22;10463;52.378;9.688;2022-10-30T05:59:24;28.40;29.10
20610;DHT22;10463;52.378;9.688;2022-10-30T06:02:09;28.40;29.20
20610;DHT22;10463;52.378;9.688;2022-10-30T06:04:54;28.40;29.20
20610;DHT22;10463;52.378;9.688;2022-10-30T06:07:38;28.40;29.70
20610;DHT22;10463;52.378;9.688;2022-10-30T06:10:25;28.30;29.20
20610;DHT22;10463;52.378;9.688;2022-10-30T06:13:32;28.30;29.20
20610;DHT22;10463;52.378;9.688;2022-10-30T06:16:44;28.30;29.20
20610;DHT22;10463;52.378;9.688;2022-10-30T06:19:40;28.20;29.20
20610;DHT22;10463;52.378;9.688;2022-10-30T06:22:53;28.30;29.20
20610;DHT22;10463;52.378;9.688;2022-10-30T06:25:38;28.20;29.20
20610;DHT22;10463;52.378;9.688;2022-10-30T06:28:31;28.20;29.20
20610;DHT22;10463;52.378;9.688;2022-10-30T06:31:16;28.20;29.20
20610;DHT22;10463;52.378;9.688;2022-10-30T06:34:02;28.20;29.20
20610;DHT22;10463;52.378;9.688;2022-10-30T06:36:49;28.20;29.20
20610;DHT22;10463;52.378;9.688;2022-10-30T06:39:33;28.20;29.10
20610;DHT22;10463;52.378;9.688;2022-10-30T06:42:32;28.10;28.80
20610;DHT22;10463;52.378;9.688;2022-10-30T06:45:26;28.10;28.80
20610;DHT22;10463;52.378;9.688;2022-10-30T06:48:10;28.00;28.90
20610;DHT22;10463;52.378;9.688;2022-10-30T06:51:05;27.90;28.90
20610;DHT22;10463;52.378;9.688;2022-10-30T06:53:54;27.90;29.00
20610;DHT22;10463;52.378;9.688;2022-10-30T06:56:57;27.90;29.10
20610;DHT22;10463;52.378;9.688;2022-10-30T07:00:12;27.80;29.10
20610;DHT22;10463;52.378;9.688;2022-10-30T07:03:31;27.80;29.20
20610;DHT22;10463;52.378;9.688;2022-10-30T07:06:18;27.80;29.20
20610;DHT22;10463;52.378;9.688;2022-10-30T07:09:03;27.80;29.30
20610;DHT22;10463;52.378;9.688;2022-10-30T07:11:49;27.80;29.30
20610;DHT22;10463;52.378;9.688;2022-10-30T07:14:43;27.80;29.30
20610;DHT22;10463;52.378;9.688;2022-10-30T07:17:34;27.80;29.30
20610;DHT22;10463;52.378;9.688;2022-10-30T07:20:28;27.80;29.40
20610;DHT22;10463;52.378;9.688;2022-10-30T07:23:14;27.80;29.40
20610;DHT22;10463;52.378;9.688;2022-10-30T07:25:59;27.80;29.40
20610;DHT22;10463;52.378;9.688;2022-10-30T07:28:55;27.80;29.40
20610;DHT22;10463;52.378;9.688;2022-10-30T07:31:57;27.80;29.40
20610;DHT22;10463;52.378;9.688;2022-10-30T07:34:54;27.80;29.40
20610;DHT22;10463;52.378;9.688;2022-10-30T07:37:45;27.80;29.40
20610;DHT22;10463;52.378;9.688;2022-10-30T07:40:33;27.80;29.40
20610;DHT22;10463;52.378;9.688;2022-10-30T07:43:32;27.80;29.50
20610;DHT22;10463;52.378;9.688;2022-10-30T07:46:32;27.80;29.50
20610;DHT22;10463;52.378;9.688;2022-10-30T07:49:40;27.80;29.50
20610;DHT22;10463;52.378;9.688;2022-10-30T07:52:30;27.80;29.50
20610;DHT22;10463;52.378;9.688;2022-10-30T07:55:15;27.80;29.60
20610;DHT22;10463;52.378;9.688;2022-10-30T07:58:02;27.80;29.60
20610;DHT22;10463;52.378;9.688;2022-10-30T08:01:19;27.90;29.70
20610;DHT22;10463;52.378;9.688;2022-10-30T08:04:04;27.90;29.70
20610;DHT22;10463;52.378;9.688;2022-10-30T08:06:49;27.90;29.70
20610;DHT22;10463;52.378;9.688;2022-10-30T08:09:34;27.90;29.70
20610;DHT22;10463;52.378;9.688;2022-10-30T08:12:20;27.90;29.70
20610;DHT22;10463;52.378;9.688;2022-10-30T08:15:07;28.00;29.80
20610;DHT22;10463;52.378;9.688;2022-10-30T08:17:53;28.00;29.70
20610;DHT22;10463;52.378;9.688;2022-10-30T08:20:38;28.00;29.80
20610;DHT22;10463;52.378;9.688;2022-10-30T08:23:23;28.10;29.80
20610;DHT22;10463;52.378;9.688;2022-10-30T08:26:08;28.10;29.80
20610;DHT22;10463;52.378;9.688;2022-10-30T08:28:54;28.10;29.80
20610;DHT22;10463;52.378;9.688;2022-10-30T08:31:40;28.10;30.30
20610;DHT22;10463;52.378;9.688;2022-10-30T08:34:40;28.10;29.80
20610;DHT22;10463;52.378;9.688;2022-10-30T08:37:26;28.10;29.80
20610;DHT22;10463;52.378;9.688;2022-10-30T08:40:11;28.20;29.90
20610;DHT22;10463;52.378;9.688;2022-10-30T08:43:07;28.20;29.90
20610;DHT22;10463;52.378;9.688;2022-10-30T08:45:53;28.20;30.30
20610;DHT22;10463;52.378;9.688;2022-10-30T08:48:42;28.30;29.80
20610;DHT22;10463;52.378;9.688;2022-10-30T08:51:27;28.30;30.10
20610;DHT22;10463;52.378;9.688;2022-10-30T08:54:15;28.40;29.90
20610;DHT22;10463;52.378;9.688;2022-10-30T08:57:01;28.30;29.90
20610;DHT22;10463;52.378;9.688;2022-10-30T08:59:47;28.40;29.90
20610;DHT22;10463;52.378;9.688;2022-10-30T09:02:53;28.40;29.90
20610;DHT22;10463;52.378;9.688;2022-10-30T09:05:51;28.50;29.90
20610;DHT22;10463;52.378;9.688;2022-10-30T09:08:55;28.50;29.90
20610;DHT22;10463;52.378;9.688;2022-10-30T09:12:02;28.50;29.90
20610;DHT22;10463;52.378;9.688;2022-10-30T09:14:51;28.60;30.00
20610;DHT22;10463;52.378;9.688;2022-10-30T09:17:36;28.60;29.90
20610;DHT22;10463;52.378;9.688;2022-10-30T09:20:21;28.60;29.90
20610;DHT22;10463;52.378;9.688;2022-10-30T09:23:08;28.70;29.90
20610;DHT22;10463;52.378;9.688;2022-10-30T09:25:56;28.70;29.90
20610;DHT22;10463;52.378;9.688;2022-10-30T09:29:07;28.80;30.00
20610;DHT22;10463;52.378;9.688;2022-10-30T09:32:11;28.80;30.00
20610;DHT22;10463;52.378;9.688;2022-10-30T09:35:08;28.80;29.90
20610;DHT22;10463;52.378;9.688;2022-10-30T09:37:57;28.90;30.00
20610;DHT22;10463;52.378;9.688;2022-10-30T09:41:14;28.90;30.00
20610;DHT22;10463;52.378;9.688;2022-10-30T09:44:15;28.90;29.90
20610;DHT22;10463;52.378;9.688;2022-10-30T09:47:17;29.00;30.00
20610;DHT22;10463;52.378;9.688;2022-10-30T09:50:21;29.00;30.00
20610;DHT22;10463;52.378;9.688;2022-10-30T09:53:17;29.00;29.90
20610;DHT22;10463;52.378;9.688;2022-10-30T09:56:11;29.10;29.90
20610;DHT22;10463;52.378;9.688;2022-10-30T09:59:08;29.10;29.90
20610;DHT22;10463;52.378;9.688;2022-10-30T10:02:08;29.20;30.00
20610;DHT22;10463;52.378;9.688;2022-10-30T10:05:04;29.20;29.90
20610;DHT22;10463;52.378;9.688;2022-10-30T10:08:16;29.20;29.90
20610;DHT22;10463;52.378;9.688;2022-10-30T10:11:25;29.30;29.90
20610;DHT22;10463;52.378;9.688;2022-10-30T10:14:15;29.30;29.90
20610;DHT22;10463;52.378;9.688;2022-10-30T10:17:04;29.30;29.90
20610;DHT22;10463;52.378;9.688;2022-10-30T10:19:57;29.40;30.50
20610;DHT22;10463;52.378;9.688;2022-10-30T10:22:48;29.40;29.90
20610;DHT22;10463;52.378;9.688;2022-10-30T10:25:34;29.50;29.90
20610;DHT22;10463;52.378;9.688;2022-10-30T10:28:43;29.50;29.90
20610;DHT22;10463;52.378;9.688;2022-10-30T10:31:42;29.50;29.80
20610;DHT22;10463;52.378;9.688;2022-10-30T10:34:44;29.60;29.80
20610;DHT22;10463;52.378;9.688;2022-10-30T10:37:37;29.70;29.90
20610;DHT22;10463;52.378;9.688;2022-10-30T10:40:39;29.70;29.90
20610;DHT22;10463;52.378;9.688;2022-10-30T10:43:39;29.70;30.40
20610;DHT22;10463;52.378;9.688;2022-10-30T10:46:48;29.80;29.80
20610;DHT22;10463;52.378;9.688;2022-10-30T10:49:51;29.90;29.90
20610;DHT22;10463;52.378;9.688;2022-10-30T10:52:42;29.90;29.90
20610;DHT22;10463;52.378;9.688;2022-10-30T10:55:33;29.90;29.90
20610;DHT22;10463;52.378;9.688;2022-10-30T10:58:27;29.90;29.90
20610;DHT22;10463;52.378;9.688;2022-10-30T11:01:21;30.00;30.00
20610;DHT22;10463;52.378;9.688;2022-10-30T11:04:14;30.00;29.90
20610;DHT22;10463;52.378;9.688;2022-10-30T11:07:20;30.10;30.00
20610;DHT22;10463;52.378;9.688;2022-10-30T11:10:12;30.10;30.00
20610;DHT22;10463;52.378;9.688;2022-10-30T11:12:59;30.20;30.00
20610;DHT22;10463;52.378;9.688;2022-10-30T11:15:55;30.20;30.00
20610;DHT22;10463;52.378;9.688;2022-10-30T11:18:43;30.20;29.90
20610;DHT22;10463;52.378;9.688;2022-10-30T11:21:33;30.30;29.60
20610;DHT22;10463;52.378;9.688;2022-10-30T11:24:28;30.30;29.60
20610;DHT22;10463;52.378;9.688;2022-10-30T11:27:24;30.30;29.40
20610;DHT22;10463;52.378;9.688;2022-10-30T11:30:18;30.40;29.40
20610;DHT22;10463;52.378;9.688;2022-10-30T11:33:21;30.40;29.30
20610;DHT22;10463;52.378;9.688;2022-10-30T11:36:12;30.50;29.40
20610;DHT22;10463;52.378;9.688;2022-10-30T11:39:08;30.50;29.20
20610;DHT22;10463;52.378;9.688;2022-10-30T11:42:00;30.50;29.00
20610;DHT22;10463;52.378;9.688;2022-10-30T11:44:48;30.60;28.90
20610;DHT22;10463;52.378;9.688;2022-10-30T11:47:36;30.60;28.80
20610;DHT22;10463;52.378;9.688;2022-10-30T11:50:23;30.60;28.70
20610;DHT22;10463;52.378;9.688;2022-10-30T11:53:17;30.60;29.10
20610;DHT22;10463;52.378;9.688;2022-10-30T11:56:11;30.60;28.40
20610;DHT22;10463;52.378;9.688;2022-10-30T11:59:01;30.60;28.40
20610;DHT22;10463;52.378;9.688;2022-10-30T12:01:59;30.70;28.30
20610;DHT22;10463;52.378;9.688;2022-10-30T12:04:44;30.70;28.00
20610;DHT22;10463;52.378;9.688;2022-10-30T12:07:30;30.70;27.70
20610;DHT22;10463;52.378;9.688;2022-10-30T12:10:25;30.70;27.50
20610;DHT22;10463;52.378;9.688;2022-10-30T12:13:14;30.70;27.40
20610;DHT22;10463;52.378;9.688;2022-10-30T12:16:14;30.70;27.40
20610;DHT22;10463;52.378;9.688;2022-10-30T12:19:03;30.70;27.50
20610;DHT22;10463;52.378;9.688;2022-10-30T12:21:51;30.80;27.40
20610;DHT22;10463;52.378;9.688;2022-10-30T12:24:42;30.80;27.40
20610;DHT22;10463;52.378;9.688;2022-10-30T12:27:30;30.80;27.20
20610;DHT22;10463;52.378;9.688;2022-10-30T12:30:19;30.80;27.30
20610;DHT22;10463;52.378;9.688;2022-10-30T12:33:11;30.80;27.20
20610;DHT22;10463;52.378;9.688;2022-10-30T12:36:00;30.80;27.00
20610;DHT22;10463;52.378;9.688;2022-10-30T12:38:49;30.80;26.90
20610;DHT22;10463;52.378;9.688;2022-10-30T12:41:42;30.80;26.90
20610;DHT22;10463;52.378;9.688;2022-10-30T12:44:32;30.80;27.40
20610;DHT22;10463;52.378;9.688;2022-10-30T12:47:26;30.80;26.90
20610;DHT22;10463;52.378;9.688;2022-10-30T12:50:19;30.80;27.00
20610;DHT22;10463;52.378;9.688;2022-10-30T12:53:10;30.80;27.00
20610;DHT22;10463;52.378;9.688;2022-10-30T12:56:09;30.80;26.90
20610;DHT22;10463;52.378;9.688;2022-10-30T12:59:15;30.80;26.80
20610;DHT22;10463;52.378;9.688;2022-10-30T13:02:15;30.80;26.60
20610;DHT22;10463;52.378;9.688;2022-10-30T13:05:06;30.90;26.50
20610;DHT22;10463;52.378;9.688;2022-10-30T13:08:06;30.90;26.50
20610;DHT22;10463;52.378;9.688;2022-10-30T13:11:01;30.90;26.50
20610;DHT22;10463;52.378;9.688;2022-10-30T13:13:49;30.90;26.70
20610;DHT22;10463;52.378;9.688;2022-10-30T13:16:35;30.90;26.60
20610;DHT22;10463;52.378;9.688;2022-10-30T13:19:22;30.90;26.50
20610;DHT22;10463;52.378;9.688;2022-10-30T13:22:14;30.90;26.60
20610;DHT22;10463;52.378;9.688;2022-10-30T13:25:10;30.90;26.60
20610;DHT22;10463;52.378;9.688;2022-10-30T13:28:03;30.90;26.50
20610;DHT22;10463;52.378;9.688;2022-10-30T13:30:58;30.90;26.50
20610;DHT22;10463;52.378;9.688;2022-10-30T13:33:53;30.90;26.50
20610;DHT22;10463;52.378;9.688;2022-10-30T13:36:46;30.90;26.50
20610;DHT22;10463;52.378;9.688;2022-10-30T13:39:39;30.90;26.30
20610;DHT22;10463;52.378;9.688;2022-10-30T13:42:39;30.90;26.50
20610;DHT22;10463;52.378;9.688;2022-10-30T13:45:50;31.00;26.50
20610;DHT22;10463;52.378;9.688;2022-10-30T13:48:49;30.90;26.50
20610;DHT22;10463;52.378;9.688;2022-10-30T13:51:43;30.90;26.50
20610;DHT22;10463;52.378;9.688;2022-10-30T13:54:32;30.90;26.50
20610;DHT22;10463;52.378;9.688;2022-10-30T13:57:21;30.90;26.60
20610;DHT22;10463;52.378;9.688;2022-10-30T14:00:16;30.90;26.60
20610;DHT22;10463;52.378;9.688;2022-10-30T14:03:36;31.00;26.70
20610;DHT22;10463;52.378;9.688;2022-10-30T14:06:30;30.90;26.60
20610;DHT22;10463;52.378;9.688;2022-10-30T14:09:27;30.90;26.50
20610;DHT22;10463;52.378;9.688;2022-10-30T14:12:43;30.90;26.40
20610;DHT22;10463;52.378;9.688;2022-10-30T14:15:33;30.90;26.30
20610;DHT22;10463;52.378;9.688;2022-10-30T14:18:30;30.80;26.20
20610;DHT22;10463;52.378;9.688;2022-10-30T14:21:52;30.80;26.10
20610;DHT22;10463;52.378;9.688;2022-10-30T14:24:43;30.80;26.20
20610;DHT22;10463;52.378;9.688;2022-10-30T14:27:30;30.70;26.10
20610;DHT22;10463;52.378;9.688;2022-10-30T14:30:18;30.70;26.10
20610;DHT22;10463;52.378;9.688;2022-10-30T14:33:03;30.70;26.20
20610;DHT22;10463;52.378;9.688;2022-10-30T14:36:13;30.60;26.20
20610;DHT22;10463;52.378;9.688;2022-10-30T14:38:59;30.60;26.30
20610;DHT22;10463;52.378;9.688;2022-10-30T14:41:54;30.60;26.50
20610;DHT22;10463;52.378;9.688;2022-10-30T14:45:07;30.50;26.50
20610;DHT22;10463;52.378;9.688;2022-10-30T14:47:58;30.60;26.70
20610;DHT22;10463;52.378;9.688;2022-10-30T14:51:00;30.50;26.70
20610;DHT22;10463;52.378;9.688;2022-10-30T14:53:57;30.50;26.80
20610;DHT22;10463;52.378;9.688;2022-10-30T14:56:46;30.50;26.70
20610;DHT22;10463;52.378;9.688;2022-10-30T14:59:33;30.50;26.70
20610;DHT22;10463;52.378;9.688;2022-10-30T15:02:30;30.50;26.70
20610;DHT22;10463;52.378;9.688;2022-10-30T15:05:36;30.40;26.70
20610;DHT22;10463;52.378;9.688;2022-10-30T15:08:52;30.40;26.70
20610;DHT22;10463;52.378;9.688;2022-10-30T15:12:24;30.40;26.80
20610;DHT22;10463;52.378;9.688;2022-10-30T15:15:14;30.30;26.80
20610;DHT22;10463;52.378;9.688;2022-10-30T15:18:06;30.30;26.90
20610;DHT22;10463;52.378;9.688;2022-10-30T15:20:53;30.20;26.90
20610;DHT22;10463;52.378;9.688;2022-10-30T15:23:40;30.20;27.00
20610;DHT22;10463;52.378;9.688;2022-10-30T15:26:34;30.10;27.00
20610;DHT22;10463;52.378;9.688;2022-10-30T15:29:23;30.10;27.70
20610;DHT22;10463;52.378;9.688;2022-10-30T15:32:15;30.00;27.20
20610;DHT22;10463;52.378;9.688;2022-10-30T15:35:09;30.00;27.30
20610;DHT22;10463;52.378;9.688;2022-10-30T15:38:05;29.90;27.30
20610;DHT22;10463;52.378;9.688;2022-10-30T15:40:55;29.90;27.40
20610;DHT22;10463;52.378;9.688;2022-10-30T15:43:43;29.80;27.40
20610;DHT22;10463;52.378;9.688;2022-10-30T15:46:28;29.80;27.50
20610;DHT22;10463;52.378;9.688;2022-10-30T15:49:18;29.80;27.50
20610;DHT22;10463;52.378;9.688;2022-10-30T15:52:11;29.80;27.50
20610;DHT22;10463;52.378;9.688;2022-10-30T15:55:01;29.80;27.60
20610;DHT22;10463;52.378;9.688;2022-10-30T15:57:49;29.80;27.60
20610;DHT22;10463;52.378;9.688;2022-10-30T16:00:37;29.90;27.70
20610;DHT22;10463;52.378;9.688;2022-10-30T16:03:23;29.80;27.60
20610;DHT22;10463;52.378;9.688;2022-10-30T16:06:16;29.90;27.70
20610;DHT22;10463;52.378;9.688;2022-10-30T16:09:03;29.90;27.70
20610;DHT22;10463;52.378;9.688;2022-10-30T16:11:49;29.90;27.70
20610;DHT22;10463;52.378;9.688;2022-10-30T16:14:36;29.90;27.80
20610;DHT22;10463;52.378;9.688;2022-10-30T16:17:23;29.90;27.80
20610;DHT22;10463;52.378;9.688;2022-10-30T16:20:09;29.90;27.80
20610;DHT22;10463;52.378;9.688;2022-10-30T16:22:55;29.90;27.80
20610;DHT22;10463;52.378;9.688;2022-10-30T16:25:40;29.90;27.90
20610;DHT22;10463;52.378;9.688;2022-10-30T16:28:28;29.90;28.00
20610;DHT22;10463;52.378;9.688;2022-10-30T16:31:13;29.90;28.00
20610;DHT22;10463;52.378;9.688;2022-10-30T16:34:02;29.90;28.00
20610;DHT22;10463;52.378;9.688;2022-10-30T16:36:48;29.90;28.00
20610;DHT22;10463;52.378;9.688;2022-10-30T16:39:34;29.90;28.00
20610;DHT22;10463;52.378;9.688;2022-10-30T16:42:20;30.00;28.10
20610;DHT22;10463;52.378;9.688;2022-10-30T16:45:49;30.00;28.20
20610;DHT22;10463;52.378;9.688;2022-10-30T16:48:34;30.00;28.10
20610;DHT22;10463;52.378;9.688;2022-10-30T16:51:21;30.00;28.20
20610;DHT22;10463;52.378;9.688;2022-10-30T16:54:20;30.00;28.20
20610;DHT22;10463;52.378;9.688;2022-10-30T16:57:14;30.00;28.30
20610;DHT22;10463;52.378;9.688;2022-10-30T17:00:00;30.10;28.30
20610;DHT22;10463;52.378;9.688;2022-10-30T17:02:48;30.00;28.20
20610;DHT22;10463;52.378;9.688;2022-10-30T17:05:34;30.10;28.30
20610;DHT22;10463;52.378;9.688;2022-10-30T17:08:42;30.10;28.30
20610;DHT22;10463;52.378;9.688;2022-10-30T17:11:37;30.10;28.30
20610;DHT22;10463;52.378;9.688;2022-10-30T17:14:22;30.10;28.30
20610;DHT22;10463;52.378;9.688;2022-10-30T17:17:24;30.10;28.30
20610;DHT22;10463;52.378;9.688;2022-10-30T17:20:24;30.20;28.40
20610;DHT22;10463;52.378;9.688;2022-10-30T17:23:16;30.10;28.30
20610;DHT22;10463;52.378;9.688;2022-10-30T17:26:10;30.20;28.40
20610;DHT22;10463;52.378;9.688;2022-10-30T17:28:55;30.20;28.40
20610;DHT22;10463;52.378;9.688;2022-10-30T17:31:43;30.20;28.40
20610;DHT22;10463;52.378;9.688;2022-10-30T17:34:28;30.20;28.40
20610;DHT22;10463;52.378;9.688;2022-10-30T17:37:12;30.20;28.40
20610;DHT22;10463;52.378;9.688;2022-10-30T17:39:57;30.20;28.50
20610;DHT22;10463;52.378;9.688;2022-10-30T17:42:43;30.20;28.50
20610;DHT22;10463;52.378;9.688;2022-10-30T17:45:28;30.30;28.50
20610;DHT22;10463;52.378;9.688;2022-10-30T17:48:15;30.30;29.00
20610;DHT22;10463;52.378;9.688;2022-10-30T17:51:00;30.30;29.10
20610;DHT22;10463;52.378;9.688;2022-10-30T17:53:46;30.30;28.50
20610;DHT22;10463;52.378;9.688;2022-10-30T17:56:32;30.30;28.50
20610;DHT22;10463;52.378;9.688;2022-10-30T17:59:19;30.30;28.50
20610;DHT22;10463;52.378;9.688;2022-10-30T18:02:12;30.30;28.50
20610;DHT22;10463;52.378;9.688;2022-10-30T18:04:57;30.30;28.50